createdAt,value
2019-01-12T00:01:25.005Z,1.50
2019-01-12T00:03:51.179Z,1.40
2019-01-12T00:06:17.388Z,1.40
2019-01-12T00:08:43.483Z,1.50
2019-01-12T00:11:09.660Z,1.40
2019-01-12T00:13:35.783Z,1.40
2019-01-12T00:16:02.040Z,1.30
2019-01-12T00:18:28.194Z,1.40
2019-01-12T00:20:54.643Z,1.40
2019-01-12T00:23:20.991Z,1.40
2019-01-12T00:25:47.072Z,1.40
2019-01-12T00:28:13.205Z,1.40
2019-01-12T00:30:39.387Z,1.40
2019-01-12T00:33:05.520Z,1.40
2019-01-12T00:35:31.719Z,1.50
2019-01-12T00:37:57.863Z,1.40
2019-01-12T00:40:24.075Z,1.50
2019-01-12T00:42:50.177Z,1.50
2019-01-12T00:45:16.584Z,1.50
2019-01-12T00:47:42.814Z,1.40
2019-01-12T00:50:12.140Z,1.40
2019-01-12T00:52:38.369Z,1.40
2019-01-12T00:55:05.272Z,1.40
2019-01-12T00:57:31.457Z,1.50
2019-01-12T00:59:57.590Z,1.50
2019-01-12T01:02:23.676Z,1.50
2019-01-12T01:04:49.758Z,1.50
2019-01-12T01:07:15.991Z,1.50
2019-01-12T01:09:42.478Z,1.40
2019-01-12T01:12:08.702Z,1.50
2019-01-12T01:14:34.835Z,1.50
2019-01-12T01:17:00.909Z,1.50
2019-01-12T01:19:27.073Z,1.50
2019-01-12T01:21:53.138Z,1.50
2019-01-12T01:24:19.259Z,1.50
2019-01-12T01:26:45.377Z,1.50
2019-01-12T01:29:11.715Z,1.50
2019-01-12T01:31:37.858Z,1.50
2019-01-12T01:34:04.106Z,1.50
2019-01-12T01:36:30.186Z,1.50
2019-01-12T01:38:56.277Z,1.50
2019-01-12T01:41:22.351Z,1.50
2019-01-12T01:43:48.489Z,1.50
2019-01-12T01:46:14.687Z,1.50
2019-01-12T01:48:40.814Z,1.50
2019-01-12T01:51:07.046Z,1.50
2019-01-12T01:53:33.195Z,1.60
2019-01-12T01:55:59.425Z,1.50
2019-01-12T01:58:25.626Z,1.60
2019-01-12T02:00:51.713Z,1.60
2019-01-12T02:03:17.798Z,1.50
2019-01-12T02:05:43.934Z,1.50
2019-01-12T02:08:10.159Z,1.50
2019-01-12T02:10:36.334Z,1.60
2019-01-12T02:13:02.852Z,1.50
2019-01-12T02:15:28.988Z,1.50
2019-01-12T02:17:55.139Z,1.50
2019-01-12T02:20:21.244Z,1.50
2019-01-12T02:22:47.566Z,1.50
2019-01-12T02:25:13.691Z,1.60
2019-01-12T02:27:39.917Z,1.60
2019-01-12T02:30:16.038Z,1.60
2019-01-12T02:32:42.149Z,1.60
2019-01-12T02:35:08.354Z,1.60
2019-01-12T02:37:34.488Z,1.60
2019-01-12T02:40:00.614Z,1.60
2019-01-12T02:42:26.708Z,1.60
2019-01-12T02:44:52.794Z,1.70
2019-01-12T02:47:19.018Z,1.70
2019-01-12T02:49:45.234Z,1.70
2019-01-12T02:52:11.349Z,1.60
2019-01-12T02:54:37.434Z,1.60
2019-01-12T02:57:03.578Z,1.60
2019-01-12T02:59:29.755Z,1.60
2019-01-12T03:01:55.832Z,1.70
2019-01-12T03:04:21.984Z,1.70
2019-01-12T03:06:48.268Z,1.70
2019-01-12T03:09:14.504Z,1.70
2019-01-12T03:11:40.628Z,1.60
2019-01-12T03:14:06.726Z,1.70
2019-01-12T03:16:32.869Z,1.70
2019-01-12T03:18:59.092Z,1.70
2019-01-12T03:21:25.274Z,1.70
2019-01-12T03:23:51.416Z,1.60
2019-01-12T03:26:17.592Z,1.60
2019-01-12T03:28:43.757Z,1.50
2019-01-12T03:31:09.972Z,1.50
2019-01-12T03:33:36.074Z,1.50
2019-01-12T03:36:02.354Z,1.50
2019-01-12T03:38:28.440Z,1.50
2019-01-12T03:40:54.517Z,1.50
2019-01-12T03:43:20.697Z,1.50
2019-01-12T03:45:48.413Z,1.40
2019-01-12T03:48:14.527Z,1.40
2019-01-12T03:50:40.713Z,1.40
2019-01-12T03:53:06.920Z,1.50
2019-01-12T03:55:33.168Z,1.50
2019-01-12T03:57:59.399Z,1.50
2019-01-12T04:00:25.700Z,1.50
2019-01-12T04:02:51.955Z,1.60
2019-01-12T04:05:18.383Z,1.60
2019-01-12T04:07:44.537Z,1.50
2019-01-12T04:10:11.967Z,1.50
2019-01-12T04:12:38.042Z,1.50
2019-01-12T04:15:06.701Z,1.60
2019-01-12T04:17:32.797Z,1.60
2019-01-12T04:19:58.899Z,1.60
2019-01-12T04:22:24.983Z,1.60
2019-01-12T04:24:51.234Z,1.60
2019-01-12T04:27:17.369Z,1.70
2019-01-12T04:29:43.515Z,1.70
2019-01-12T04:32:09.675Z,1.60
2019-01-12T04:34:35.991Z,1.70
2019-01-12T04:37:02.292Z,1.70
2019-01-12T04:39:28.457Z,1.80
2019-01-12T04:41:54.527Z,1.80
2019-01-12T04:44:20.627Z,1.80
2019-01-12T04:46:46.726Z,1.80
2019-01-12T04:49:12.874Z,1.80
2019-01-12T04:51:39.089Z,1.80
2019-01-12T04:54:05.235Z,1.80
2019-01-12T04:56:31.454Z,1.80
2019-01-12T04:58:57.535Z,1.80
2019-01-12T05:01:23.717Z,1.70
2019-01-12T05:03:49.828Z,1.70
2019-01-12T05:06:15.895Z,1.80
2019-01-12T05:08:41.991Z,1.80
2019-01-12T05:11:08.101Z,1.80
2019-01-12T05:13:34.215Z,1.90
2019-01-12T05:16:00.416Z,1.80
2019-01-12T05:18:26.503Z,1.80
2019-01-12T05:20:52.603Z,1.80
2019-01-12T05:23:18.739Z,1.80
2019-01-12T05:25:48.918Z,1.80
2019-01-12T05:28:12.905Z,1.80
2019-01-12T05:30:39.354Z,1.80
2019-01-12T05:33:05.539Z,1.80
2019-01-12T05:35:31.693Z,1.80
2019-01-12T05:37:57.816Z,1.90
2019-01-12T05:40:24.028Z,1.90
2019-01-12T05:42:50.312Z,1.80
2019-01-12T05:45:16.614Z,1.80
2019-01-12T05:47:42.776Z,1.80
2019-01-12T05:50:10.733Z,1.90
2019-01-12T05:52:37.118Z,1.90
2019-01-12T05:55:04.264Z,1.90
2019-01-12T05:57:30.487Z,1.90
2019-01-12T05:59:56.696Z,1.90
2019-01-12T06:02:22.826Z,1.90
2019-01-12T06:04:49.033Z,1.90
2019-01-12T06:07:15.128Z,2.00
2019-01-12T06:09:41.278Z,1.90
2019-01-12T06:12:07.400Z,1.90
2019-01-12T06:14:33.604Z,1.90
2019-01-12T06:16:59.747Z,1.90
2019-01-12T06:19:25.898Z,1.90
2019-01-12T06:21:52.043Z,1.80
2019-01-12T06:24:18.128Z,1.80
2019-01-12T06:26:44.242Z,1.90
2019-01-12T06:29:10.674Z,1.80
2019-01-12T06:31:36.794Z,1.80
2019-01-12T06:34:03.132Z,1.80
2019-01-12T06:36:29.244Z,1.90
2019-01-12T06:38:55.436Z,1.90
2019-01-12T06:41:21.564Z,1.90
2019-01-12T06:43:47.643Z,1.90
2019-01-12T06:46:13.792Z,2.00
2019-01-12T06:48:39.956Z,2.00
2019-01-12T06:51:06.092Z,2.10
2019-01-12T06:53:32.261Z,2.00
2019-01-12T06:55:58.415Z,2.00
2019-01-12T06:58:24.554Z,2.00
2019-01-12T07:00:50.650Z,2.00
2019-01-12T07:03:16.803Z,2.10
2019-01-12T07:05:43.024Z,2.10
2019-01-12T07:08:09.148Z,2.10
2019-01-12T07:10:35.244Z,2.10
2019-01-12T07:13:01.316Z,2.10
2019-01-12T07:15:27.565Z,2.10
2019-01-12T07:17:53.682Z,2.20
2019-01-12T07:20:19.871Z,2.20
2019-01-12T07:22:46.438Z,2.20
2019-01-12T07:25:12.861Z,2.20
2019-01-12T07:27:39.336Z,2.20
2019-01-12T07:30:09.297Z,2.20
2019-01-12T07:32:35.436Z,2.20
2019-01-12T07:35:01.782Z,2.20
2019-01-12T07:37:27.951Z,2.20
2019-01-12T07:39:54.042Z,2.20
2019-01-12T07:42:20.181Z,2.30
2019-01-12T07:44:46.411Z,2.30
2019-01-12T07:47:12.519Z,2.30
2019-01-12T07:49:38.635Z,2.30
2019-01-12T07:52:04.719Z,2.20
2019-01-12T07:54:30.849Z,2.20
2019-01-12T07:56:57.028Z,2.30
2019-01-12T07:59:23.193Z,2.30
2019-01-12T08:01:49.289Z,2.20
2019-01-12T08:04:15.490Z,2.20
2019-01-12T08:06:41.617Z,2.20
2019-01-12T08:09:07.999Z,2.20
2019-01-12T08:11:34.187Z,2.30
2019-01-12T08:14:00.385Z,2.30
2019-01-12T08:16:26.530Z,2.20
2019-01-12T08:18:52.833Z,2.20
2019-01-12T08:21:18.961Z,2.20
2019-01-12T08:23:45.083Z,2.20
2019-01-12T08:26:11.192Z,2.30
2019-01-12T08:28:37.438Z,2.30
2019-01-12T08:31:03.737Z,2.50
2019-01-12T08:33:29.819Z,2.40
2019-01-12T08:35:55.991Z,2.30
2019-01-12T08:38:22.396Z,2.40
2019-01-12T08:40:48.650Z,2.40
2019-01-12T08:43:14.867Z,2.40
2019-01-12T08:45:41.063Z,2.50
2019-01-12T08:48:07.209Z,2.50
2019-01-12T08:50:33.355Z,2.50
2019-01-12T08:52:59.568Z,2.50
2019-01-12T08:55:25.675Z,2.50
2019-01-12T08:57:51.850Z,2.50
2019-01-12T09:00:18.901Z,2.60
2019-01-12T09:02:45.081Z,2.60
2019-01-12T09:05:11.853Z,2.60
2019-01-12T09:07:38.068Z,2.60
2019-01-12T09:10:08.153Z,2.60
2019-01-12T09:12:34.327Z,2.60
2019-01-12T09:15:00.441Z,2.70
2019-01-12T09:17:26.557Z,2.80
2019-01-12T09:19:52.690Z,2.70
2019-01-12T09:22:18.966Z,2.80
2019-01-12T09:24:45.365Z,2.80
2019-01-12T09:27:11.453Z,2.60
2019-01-12T09:29:37.999Z,2.70
2019-01-12T09:32:04.258Z,2.60
2019-01-12T09:34:30.408Z,2.60
2019-01-12T09:36:56.573Z,2.60
2019-01-12T09:39:22.732Z,2.60
2019-01-12T09:41:48.916Z,2.70
2019-01-12T09:44:15.142Z,2.70
2019-01-12T09:46:41.286Z,2.60
2019-01-12T09:49:07.367Z,2.60
2019-01-12T09:51:33.458Z,2.70
2019-01-12T09:53:59.532Z,2.70
2019-01-12T09:56:25.631Z,2.70
2019-01-12T09:58:51.709Z,2.70
2019-01-12T10:01:17.878Z,2.60
2019-01-12T10:03:44.091Z,2.70
2019-01-12T10:06:10.231Z,2.70
2019-01-12T10:08:36.430Z,2.70
2019-01-12T10:11:03.157Z,2.70
2019-01-12T10:13:29.381Z,2.70
2019-01-12T10:15:55.575Z,2.80
2019-01-12T10:18:21.719Z,2.70
2019-01-12T10:20:47.960Z,2.70
2019-01-12T10:23:14.137Z,2.60
2019-01-12T10:25:40.383Z,2.60
2019-01-12T10:28:06.567Z,2.70
2019-01-12T10:30:32.885Z,2.70
2019-01-12T10:32:59.153Z,2.70
2019-01-12T10:35:25.526Z,2.80
2019-01-12T10:37:51.777Z,2.70
2019-01-12T10:40:18.583Z,2.70
2019-01-12T10:42:45.202Z,2.70
2019-01-12T10:45:13.510Z,2.60
2019-01-12T10:47:41.448Z,2.60
2019-01-12T10:50:12.319Z,2.70
2019-01-12T10:52:38.666Z,2.80
2019-01-12T10:55:05.347Z,2.80
2019-01-12T10:57:31.436Z,2.90
2019-01-12T10:59:57.606Z,2.90
2019-01-12T11:02:23.802Z,2.90
2019-01-12T11:04:50.060Z,2.90
2019-01-12T11:07:16.647Z,2.90
2019-01-12T11:09:42.813Z,2.90
2019-01-12T11:12:09.092Z,3.00
2019-01-12T11:14:35.246Z,3.00
2019-01-12T11:17:01.534Z,3.00
2019-01-12T11:19:27.651Z,3.00
2019-01-12T11:21:53.788Z,3.00
2019-01-12T11:24:19.910Z,2.80
2019-01-12T11:26:46.003Z,2.90
2019-01-12T11:29:12.088Z,3.00
2019-01-12T11:31:38.267Z,3.00
2019-01-12T11:34:04.626Z,3.00
2019-01-12T11:36:30.762Z,3.90
2019-01-12T11:38:56.888Z,3.60
2019-01-12T11:41:23.181Z,3.50
2019-01-12T11:43:54.211Z,3.30
2019-01-12T11:46:20.394Z,3.30
2019-01-12T11:48:46.596Z,3.20
2019-01-12T11:51:13.145Z,3.20
2019-01-12T11:53:39.325Z,3.10
2019-01-12T11:56:05.690Z,3.20
2019-01-12T11:58:32.026Z,3.10
2019-01-12T12:00:58.236Z,3.20
2019-01-12T12:03:24.350Z,3.20
2019-01-12T12:05:50.510Z,3.20
2019-01-12T12:08:16.684Z,3.20
2019-01-12T12:10:42.995Z,3.20
2019-01-12T12:13:09.183Z,3.10
2019-01-12T12:15:35.279Z,3.10
2019-01-12T12:18:01.433Z,3.10
2019-01-12T12:20:27.879Z,3.10
2019-01-12T12:22:54.405Z,3.20
2019-01-12T12:25:20.757Z,3.20
2019-01-12T12:27:46.847Z,3.30
2019-01-12T12:30:24.272Z,3.30
2019-01-12T12:32:50.389Z,3.30
2019-01-12T12:35:16.691Z,3.30
2019-01-12T12:37:42.931Z,3.30
2019-01-12T12:40:12.837Z,3.30
2019-01-12T12:42:38.949Z,3.30
2019-01-12T12:45:11.926Z,3.30
2019-01-12T12:47:38.035Z,3.40
2019-01-12T12:50:07.999Z,3.30
2019-01-12T12:52:34.227Z,3.20
2019-01-12T12:55:00.318Z,3.20
2019-01-12T12:57:32.731Z,3.10
2019-01-12T12:59:54.468Z,3.10
2019-01-12T13:02:20.644Z,3.10
2019-01-12T13:04:46.772Z,3.10
2019-01-12T13:07:13.001Z,3.10
2019-01-12T13:09:39.114Z,3.10
2019-01-12T13:12:05.654Z,3.10
2019-01-12T13:14:31.934Z,3.10
2019-01-12T13:16:58.050Z,3.00
2019-01-12T13:19:24.197Z,3.00
2019-01-12T13:21:50.395Z,3.00
2019-01-12T13:24:16.525Z,3.00
2019-01-12T13:26:42.855Z,3.10
2019-01-12T13:29:09.246Z,3.00
2019-01-12T13:31:35.363Z,3.10
2019-01-12T13:34:01.434Z,3.10
2019-01-12T13:36:27.628Z,3.00
2019-01-12T13:38:53.766Z,3.10
2019-01-12T13:41:20.067Z,3.10
2019-01-12T13:43:46.192Z,3.10
2019-01-12T13:46:12.435Z,3.00
2019-01-12T13:48:38.611Z,3.10
2019-01-12T13:51:04.963Z,3.00
2019-01-12T13:53:31.034Z,3.00
2019-01-12T13:55:57.120Z,3.00
2019-01-12T13:58:23.248Z,3.00
2019-01-12T14:00:49.363Z,2.90
2019-01-12T14:03:15.489Z,3.00
2019-01-12T14:05:41.595Z,3.00
2019-01-12T14:08:07.680Z,2.90
2019-01-12T14:10:34.097Z,2.90
2019-01-12T14:13:00.189Z,2.90
2019-01-12T14:15:26.624Z,3.00
2019-01-12T14:17:52.760Z,3.00
2019-01-12T14:20:21.998Z,3.00
2019-01-12T14:22:48.161Z,3.00
2019-01-12T14:25:14.273Z,2.90
2019-01-12T14:27:40.385Z,3.00
2019-01-12T14:30:15.932Z,2.90
2019-01-12T14:32:42.316Z,3.00
2019-01-12T14:35:10.342Z,3.00
2019-01-12T14:37:36.447Z,3.00
2019-01-12T14:40:05.671Z,3.10
2019-01-12T14:42:31.850Z,3.00
2019-01-12T14:44:57.931Z,3.00
2019-01-12T14:47:24.071Z,3.00
2019-01-12T14:49:50.294Z,3.00
2019-01-12T14:52:16.422Z,3.00
2019-01-12T14:54:42.512Z,3.00
2019-01-12T14:57:08.649Z,3.00
2019-01-12T14:59:34.788Z,3.00
2019-01-12T15:02:01.220Z,3.00
2019-01-12T15:04:27.452Z,3.10
2019-01-12T15:06:53.699Z,3.10
2019-01-12T15:09:19.788Z,3.10
2019-01-12T15:11:45.968Z,3.10
2019-01-12T15:14:12.080Z,3.10
2019-01-12T15:16:38.286Z,3.10
2019-01-12T15:19:04.397Z,3.10
2019-01-12T15:21:30.545Z,3.10
2019-01-12T15:23:56.635Z,3.10
2019-01-12T15:26:22.788Z,3.10
2019-01-12T15:28:48.956Z,3.10
2019-01-12T15:31:15.062Z,3.00
2019-01-12T15:33:41.273Z,3.10
2019-01-12T15:36:07.392Z,3.10
2019-01-12T15:38:33.466Z,3.00
2019-01-12T15:40:59.623Z,3.00
2019-01-12T15:43:25.762Z,3.00
2019-01-12T15:45:52.110Z,3.00
2019-01-12T15:48:18.184Z,3.00
2019-01-12T15:50:44.310Z,3.00
2019-01-12T15:53:10.539Z,3.00
2019-01-12T15:55:36.724Z,3.00
2019-01-12T15:58:02.944Z,2.90
2019-01-12T16:00:29.213Z,3.00
2019-01-12T16:02:55.526Z,2.90
2019-01-12T16:05:21.967Z,2.90
2019-01-12T16:07:48.266Z,2.90
2019-01-12T16:10:14.911Z,2.90
2019-01-12T16:12:41.151Z,2.90
2019-01-12T16:15:11.034Z,2.90
2019-01-12T16:17:37.304Z,2.90
2019-01-12T16:20:07.279Z,2.90
2019-01-12T16:22:33.401Z,2.90
2019-01-12T16:24:59.553Z,2.80
2019-01-12T16:27:25.757Z,2.80
2019-01-12T16:29:52.076Z,2.90
2019-01-12T16:32:18.226Z,2.80
2019-01-12T16:34:44.400Z,2.80
2019-01-12T16:37:10.514Z,2.80
2019-01-12T16:39:36.669Z,2.80
2019-01-12T16:42:03.248Z,2.80
2019-01-12T16:44:29.394Z,2.80
2019-01-12T16:46:55.611Z,2.70
2019-01-12T16:49:21.749Z,2.70
2019-01-12T16:51:47.985Z,2.70
2019-01-12T16:54:14.175Z,2.70
2019-01-12T16:56:40.286Z,2.70
2019-01-12T16:59:06.352Z,2.60
2019-01-12T17:01:32.466Z,2.60
2019-01-12T17:03:58.561Z,2.50
2019-01-12T17:06:24.785Z,2.60
2019-01-12T17:08:51.010Z,2.50
2019-01-12T17:11:17.158Z,2.40
2019-01-12T17:13:43.377Z,2.30
2019-01-12T17:16:09.527Z,2.30
2019-01-12T17:18:35.721Z,2.30
2019-01-12T17:21:01.937Z,2.20
2019-01-12T17:23:28.231Z,2.30
2019-01-12T17:25:54.413Z,2.30
2019-01-12T17:28:20.639Z,2.30
2019-01-12T17:30:46.817Z,2.30
2019-01-12T17:33:12.974Z,2.30
2019-01-12T17:35:39.136Z,2.30
2019-01-12T17:38:05.355Z,2.30
2019-01-12T17:40:31.589Z,2.30
2019-01-12T17:42:57.784Z,2.70
2019-01-12T17:45:24.221Z,2.50
2019-01-12T17:47:50.419Z,2.40
2019-01-12T17:50:18.762Z,2.50
2019-01-12T17:52:45.389Z,2.40
2019-01-12T17:55:14.379Z,2.40
2019-01-12T17:57:40.619Z,2.30
2019-01-12T18:00:11.350Z,2.30
2019-01-12T18:02:37.604Z,2.30
2019-01-12T18:05:04.525Z,2.40
2019-01-12T18:07:30.840Z,2.40
2019-01-12T18:09:56.978Z,2.40
2019-01-12T18:12:23.080Z,2.40
2019-01-12T18:14:49.178Z,2.40
2019-01-12T18:17:15.402Z,2.40
2019-01-12T18:19:41.622Z,2.50
2019-01-12T18:22:07.757Z,2.50
2019-01-12T18:24:33.850Z,2.50
2019-01-12T18:27:00.015Z,2.50
2019-01-12T18:29:26.173Z,2.60
2019-01-12T18:31:52.280Z,2.60
2019-01-12T18:34:18.478Z,2.60
2019-01-12T18:36:44.632Z,2.60
2019-01-12T18:39:10.953Z,2.70
2019-01-12T18:41:37.165Z,2.70
2019-01-12T18:44:03.588Z,2.80
2019-01-12T18:46:29.939Z,2.80
2019-01-12T18:48:56.040Z,2.80
2019-01-12T18:51:22.207Z,2.90
2019-01-12T18:53:48.478Z,2.90
2019-01-12T18:56:14.836Z,2.90
2019-01-12T18:58:41.082Z,3.00
2019-01-12T19:01:07.251Z,2.90
2019-01-12T19:03:33.411Z,3.10
2019-01-12T19:05:59.728Z,3.10
2019-01-12T19:08:25.814Z,3.10
2019-01-12T19:10:52.162Z,3.00
2019-01-12T19:13:18.258Z,3.00
2019-01-12T19:15:44.383Z,3.00
2019-01-12T19:18:10.498Z,3.00
2019-01-12T19:20:36.654Z,3.00
2019-01-12T19:23:03.007Z,3.00
2019-01-12T19:25:29.346Z,2.90
2019-01-12T19:27:55.543Z,2.90
2019-01-12T19:30:22.466Z,2.90
2019-01-12T19:32:48.581Z,2.90
2019-01-12T19:35:14.830Z,3.00
2019-01-12T19:37:41.198Z,3.00
2019-01-12T19:40:10.633Z,3.00
2019-01-12T19:42:36.875Z,3.00
2019-01-12T19:45:05.503Z,3.00
2019-01-12T19:47:31.626Z,2.80
2019-01-12T19:49:58.243Z,2.90
2019-01-12T19:52:25.156Z,2.80
2019-01-12T19:54:51.331Z,2.80
2019-01-12T19:57:17.806Z,2.70
2019-01-12T19:59:43.893Z,2.70
2019-01-12T20:02:09.989Z,2.70
2019-01-12T20:04:36.091Z,2.70
2019-01-12T20:07:02.455Z,2.60
2019-01-12T20:09:28.618Z,2.60
2019-01-12T20:11:54.879Z,2.50
2019-01-12T20:14:21.116Z,2.50
2019-01-12T20:16:47.354Z,2.50
2019-01-12T20:19:13.540Z,2.60
2019-01-12T20:21:39.769Z,2.50
2019-01-12T20:24:06.023Z,2.50
2019-01-12T20:26:32.221Z,2.50
2019-01-12T20:28:58.383Z,2.50
2019-01-12T20:31:40.594Z,2.50
2019-01-12T20:34:16.627Z,2.40
2019-01-12T20:37:03.405Z,2.50
2019-01-12T20:39:51.605Z,2.50
2019-01-12T20:42:49.251Z,2.50
2019-01-12T20:45:42.994Z,2.50
2019-01-12T20:48:46.461Z,2.60
2019-01-12T20:51:38.804Z,2.60
2019-01-12T20:54:15.033Z,2.60
2019-01-12T20:57:08.040Z,2.60
2019-01-12T20:59:55.090Z,2.60
2019-01-12T21:02:38.041Z,2.60
2019-01-12T21:05:19.704Z,2.60
2019-01-12T21:07:49.645Z,2.70
2019-01-12T21:10:28.787Z,2.70
2019-01-12T21:13:07.934Z,2.70
2019-01-12T21:15:37.139Z,2.70
2019-01-12T21:18:03.931Z,2.60
2019-01-12T21:20:30.249Z,2.70
2019-01-12T21:22:56.501Z,2.60
2019-01-12T21:25:22.727Z,2.60
2019-01-12T21:27:48.999Z,2.70
2019-01-12T21:30:16.312Z,2.80
2019-01-12T21:32:42.513Z,2.80
2019-01-12T21:35:08.926Z,2.80
2019-01-12T21:37:35.331Z,2.80
2019-01-12T21:40:01.547Z,2.80
2019-01-12T21:42:27.671Z,2.80
2019-01-12T21:44:53.750Z,2.90
2019-01-12T21:47:19.910Z,2.90
2019-01-12T21:49:46.138Z,2.80
2019-01-12T21:52:12.311Z,2.90
2019-01-12T21:54:38.423Z,2.90
2019-01-12T21:57:04.618Z,2.90
2019-01-12T21:59:30.846Z,2.80
2019-01-12T22:01:57.055Z,2.90
2019-01-12T22:04:23.267Z,2.90
2019-01-12T22:06:49.504Z,2.90
2019-01-12T22:09:15.711Z,2.90
2019-01-12T22:11:41.852Z,2.90
2019-01-12T22:14:08.252Z,2.80
2019-01-12T22:16:34.470Z,2.90
2019-01-12T22:19:02.133Z,2.90
2019-01-12T22:21:28.486Z,2.90
2019-01-12T22:23:54.584Z,2.90
2019-01-12T22:26:20.765Z,3.00
2019-01-12T22:28:47.012Z,3.00
2019-01-12T22:31:13.113Z,3.00
2019-01-12T22:33:39.340Z,2.90
2019-01-12T22:36:05.562Z,3.00
2019-01-12T22:38:31.791Z,3.00
2019-01-12T22:40:58.002Z,3.00
2019-01-12T22:43:24.882Z,3.00
2019-01-12T22:45:51.238Z,3.00
2019-01-12T22:48:17.381Z,3.00
2019-01-12T22:50:43.510Z,3.00
2019-01-12T22:53:09.783Z,3.00
2019-01-12T22:55:35.946Z,3.00
2019-01-12T22:58:02.062Z,3.00
2019-01-12T23:00:47.421Z,2.90
2019-01-12T23:03:13.745Z,2.90
2019-01-12T23:05:39.963Z,2.90
2019-01-12T23:08:06.235Z,2.90
2019-01-12T23:10:32.357Z,2.90
2019-01-12T23:12:58.450Z,2.90
2019-01-12T23:15:24.576Z,2.90
2019-01-12T23:17:50.791Z,2.90
2019-01-12T23:20:17.030Z,2.90
2019-01-12T23:22:43.324Z,3.00
2019-01-12T23:25:09.539Z,2.90
2019-01-12T23:27:35.777Z,2.90
2019-01-12T23:30:11.763Z,2.90
2019-01-12T23:32:37.985Z,2.90
2019-01-12T23:35:06.726Z,2.90
2019-01-12T23:37:32.992Z,2.90
2019-01-12T23:39:59.259Z,3.00
2019-01-12T23:42:25.523Z,3.00
2019-01-12T23:44:51.692Z,3.10
2019-01-12T23:47:17.914Z,3.10
2019-01-12T23:49:44.135Z,3.10
2019-01-12T23:52:10.283Z,3.10
2019-01-12T23:54:36.535Z,3.10
2019-01-12T23:57:02.768Z,3.20
2019-01-12T23:59:29.017Z,3.20
